sensor_id;sensor_type;location;lat;lon;timestamp;pressure;altitude;pressure_sealevel;temperature;humidity
58927;BME280;44712;52.530;9.760;2023-09-30T00:00:10;101717.31;;;13.23;100.00
58927;BME280;44712;52.530;9.760;2023-09-30T00:02:39;101730.91;;;13.23;100.00
58927;BME280;44712;52.530;9.760;2023-09-30T00:05:06;101719.13;;;13.22;100.00
58927;BME280;44712;52.530;9.760;2023-09-30T00:07:34;101728.22;;;13.21;100.00
58927;BME280;44712;52.530;9.760;2023-09-30T00:10:01;101734.56;;;13.20;100.00
58927;BME280;44712;52.530;9.760;2023-09-30T00:12:28;101730.03;;;13.18;100.00
58927;BME280;44712;52.530;9.760;2023-09-30T00:14:55;101738.19;;;13.19;100.00
58927;BME280;44712;52.530;9.760;2023-09-30T00:17:21;101741.84;;;13.14;100.00
58927;BME280;44712;52.530;9.760;2023-09-30T00:19:48;101734.63;;;13.13;100.00
58927;BME280;44712;52.530;9.760;2023-09-30T00:22:16;101729.19;;;13.13;100.00
58927;BME280;44712;52.530;9.760;2023-09-30T00:24:43;101731.03;;;13.07;100.00
58927;BME280;44712;52.530;9.760;2023-09-30T00:27:10;101738.31;;;13.05;100.00
58927;BME280;44712;52.530;9.760;2023-09-30T00:29:38;101750.97;;;13.03;100.00
58927;BME280;44712;52.530;9.760;2023-09-30T00:32:06;101756.41;;;13.03;100.00
58927;BME280;44712;52.530;9.760;2023-09-30T00:34:34;101753.69;;;13.03;100.00
58927;BME280;44712;52.530;9.760;2023-09-30T00:40:49;101745.59;;;12.94;100.00
58927;BME280;44712;52.530;9.760;2023-09-30T00:43:45;101752.84;;;12.95;100.00
58927;BME280;44712;52.530;9.760;2023-09-30T00:46:34;101761.03;;;12.94;100.00
58927;BME280;44712;52.530;9.760;2023-09-30T00:49:02;101759.22;;;12.93;100.00
58927;BME280;44712;52.530;9.760;2023-09-30T00:51:31;101769.19;;;12.89;100.00
58927;BME280;44712;52.530;9.760;2023-09-30T00:54:00;101767.34;;;12.94;100.00
58927;BME280;44712;52.530;9.760;2023-09-30T00:56:28;101764.66;;;12.91;100.00
58927;BME280;44712;52.530;9.760;2023-09-30T00:58:57;101757.44;;;12.87;100.00
58927;BME280;44712;52.530;9.760;2023-09-30T01:01:26;101757.44;;;12.84;100.00
58927;BME280;44712;52.530;9.760;2023-09-30T01:03:54;101745.66;;;12.85;100.00
58927;BME280;44712;52.530;9.760;2023-09-30T01:06:22;101737.53;;;12.85;100.00
58927;BME280;44712;52.530;9.760;2023-09-30T01:12:10;101746.63;;;12.79;100.00
58927;BME280;44712;52.530;9.760;2023-09-30T01:18:44;101751.22;;;12.66;100.00
58927;BME280;44712;52.530;9.760;2023-09-30T01:21:11;101756.66;;;12.69;100.00
58927;BME280;44712;52.530;9.760;2023-09-30T01:23:40;101748.53;;;12.62;100.00
58927;BME280;44712;52.530;9.760;2023-09-30T01:26:09;101758.47;;;12.61;100.00
58927;BME280;44712;52.530;9.760;2023-09-30T01:28:37;101766.66;;;12.55;100.00
58927;BME280;44712;52.530;9.760;2023-09-30T01:31:05;101769.38;;;12.52;100.00
58927;BME280;44712;52.530;9.760;2023-09-30T01:33:32;101767.59;;;12.51;100.00
58927;BME280;44712;52.530;9.760;2023-09-30T01:36:27;101761.25;;;12.53;100.00
58927;BME280;44712;52.530;9.760;2023-09-30T01:38:55;101773.03;;;12.51;100.00
58927;BME280;44712;52.530;9.760;2023-09-30T01:41:25;101779.38;;;12.48;100.00
58927;BME280;44712;52.530;9.760;2023-09-30T01:43:52;101771.25;;;12.47;100.00
58927;BME280;44712;52.530;9.760;2023-09-30T01:46:18;101783.94;;;12.42;100.00
58927;BME280;44712;52.530;9.760;2023-09-30T01:48:45;101783.00;;;12.41;100.00
58927;BME280;44712;52.530;9.760;2023-09-30T01:51:12;101782.13;;;12.41;100.00
58927;BME280;44712;52.530;9.760;2023-09-30T01:53:39;101780.31;;;12.38;100.00
58927;BME280;44712;52.530;9.760;2023-09-30T01:56:07;101774.91;;;12.33;100.00
58927;BME280;44712;52.530;9.760;2023-09-30T01:58:34;101770.38;;;12.28;100.00
58927;BME280;44712;52.530;9.760;2023-09-30T02:01:03;101771.31;;;12.22;100.00
58927;BME280;44712;52.530;9.760;2023-09-30T02:03:32;101774.94;;;12.24;100.00
58927;BME280;44712;52.530;9.760;2023-09-30T02:06:02;101774.00;;;12.25;100.00
58927;BME280;44712;52.530;9.760;2023-09-30T02:08:30;101782.16;;;12.28;100.00
58927;BME280;44712;52.530;9.760;2023-09-30T02:10:57;101777.66;;;12.19;100.00
58927;BME280;44712;52.530;9.760;2023-09-30T02:13:24;101787.63;;;12.20;100.00
58927;BME280;44712;52.530;9.760;2023-09-30T02:16:16;101797.59;;;12.14;100.00
58927;BME280;44712;52.530;9.760;2023-09-30T02:18:44;101784.91;;;12.17;100.00
58927;BME280;44712;52.530;9.760;2023-09-30T02:21:44;101778.56;;;12.09;100.00
58927;BME280;44712;52.530;9.760;2023-09-30T02:24:11;101775.00;;;12.05;100.00
58927;BME280;44712;52.530;9.760;2023-09-30T02:26:40;101765.97;;;12.07;100.00
58927;BME280;44712;52.530;9.760;2023-09-30T02:29:06;101768.66;;;12.02;100.00
58927;BME280;44712;52.530;9.760;2023-09-30T02:31:36;101776.81;;;11.97;100.00
58927;BME280;44712;52.530;9.760;2023-09-30T02:34:03;101788.56;;;12.02;100.00
58927;BME280;44712;52.530;9.760;2023-09-30T02:36:30;101782.25;;;12.00;100.00
58927;BME280;44712;52.530;9.760;2023-09-30T02:38:57;101789.47;;;12.01;100.00
58927;BME280;44712;52.530;9.760;2023-09-30T02:41:24;101783.16;;;11.96;100.00
58927;BME280;44712;52.530;9.760;2023-09-30T02:43:51;101794.00;;;11.99;100.00
58927;BME280;44712;52.530;9.760;2023-09-30T02:46:19;101803.03;;;11.97;100.00
58927;BME280;44712;52.530;9.760;2023-09-30T02:48:46;101808.47;;;11.97;100.00
58927;BME280;44712;52.530;9.760;2023-09-30T02:51:13;101806.63;;;11.94;100.00
58927;BME280;44712;52.530;9.760;2023-09-30T02:53:41;101809.38;;;11.97;100.00
58927;BME280;44712;52.530;9.760;2023-09-30T02:56:09;101811.19;;;11.95;100.00
58927;BME280;44712;52.530;9.760;2023-09-30T02:58:37;101793.94;;;11.93;100.00
58927;BME280;44712;52.530;9.760;2023-09-30T03:01:05;101798.50;;;11.88;100.00
58927;BME280;44712;52.530;9.760;2023-09-30T03:03:33;101811.16;;;11.86;100.00
58927;BME280;44712;52.530;9.760;2023-09-30T03:06:00;101820.19;;;11.85;100.00
58927;BME280;44712;52.530;9.760;2023-09-30T03:08:28;101822.03;;;11.81;100.00
58927;BME280;44712;52.530;9.760;2023-09-30T03:10:55;101818.41;;;11.78;100.00
58927;BME280;44712;52.530;9.760;2023-09-30T03:13:22;101807.56;;;11.84;100.00
58927;BME280;44712;52.530;9.760;2023-09-30T03:15:49;101811.19;;;11.81;100.00
58927;BME280;44712;52.530;9.760;2023-09-30T03:18:19;101809.34;;;11.76;100.00
58927;BME280;44712;52.530;9.760;2023-09-30T03:20:58;101808.47;;;11.77;100.00
58927;BME280;44712;52.530;9.760;2023-09-30T03:23:27;101815.69;;;11.78;100.00
58927;BME280;44712;52.530;9.760;2023-09-30T03:25:59;101807.53;;;11.73;100.00
58927;BME280;44712;52.530;9.760;2023-09-30T03:28:26;101803.97;;;11.77;100.00
58927;BME280;44712;52.530;9.760;2023-09-30T03:30:54;101815.69;;;11.81;100.00
58927;BME280;44712;52.530;9.760;2023-09-30T03:33:21;101811.16;;;11.77;100.00
58927;BME280;44712;52.530;9.760;2023-09-30T03:35:48;101811.19;;;11.75;100.00
58927;BME280;44712;52.530;9.760;2023-09-30T03:38:14;101809.38;;;11.69;100.00
58927;BME280;44712;52.530;9.760;2023-09-30T03:40:43;101806.66;;;11.71;100.00
58927;BME280;44712;52.530;9.760;2023-09-30T03:43:16;101800.31;;;11.67;100.00
58927;BME280;44712;52.530;9.760;2023-09-30T03:45:43;101809.38;;;11.69;100.00
58927;BME280;44712;52.530;9.760;2023-09-30T03:48:09;101808.47;;;11.69;100.00
58927;BME280;44712;52.530;9.760;2023-09-30T03:50:37;101805.75;;;11.64;100.00
58927;BME280;44712;52.530;9.760;2023-09-30T03:53:05;101796.72;;;11.61;100.00
58927;BME280;44712;52.530;9.760;2023-09-30T03:55:35;101793.13;;;11.60;100.00
58927;BME280;44712;52.530;9.760;2023-09-30T03:58:03;101796.72;;;11.59;100.00
58927;BME280;44712;52.530;9.760;2023-09-30T04:00:30;101799.44;;;11.58;100.00
58927;BME280;44712;52.530;9.760;2023-09-30T04:02:57;101795.81;;;11.55;100.00
58927;BME280;44712;52.530;9.760;2023-09-30T04:05:28;101805.75;;;11.55;100.00
58927;BME280;44712;52.530;9.760;2023-09-30T04:08:02;101799.44;;;11.56;100.00
58927;BME280;44712;52.530;9.760;2023-09-30T04:10:31;101794.91;;;11.53;100.00
58927;BME280;44712;52.530;9.760;2023-09-30T04:12:58;101799.44;;;11.56;100.00
58927;BME280;44712;52.530;9.760;2023-09-30T04:15:25;101805.75;;;11.49;100.00
58927;BME280;44712;52.530;9.760;2023-09-30T04:17:51;101798.53;;;11.48;100.00
58927;BME280;44712;52.530;9.760;2023-09-30T04:20:19;101804.84;;;11.50;100.00
58927;BME280;44712;52.530;9.760;2023-09-30T04:22:50;101804.84;;;11.50;100.00
58927;BME280;44712;52.530;9.760;2023-09-30T04:25:17;101804.84;;;11.51;100.00
58927;BME280;44712;52.530;9.760;2023-09-30T04:27:46;101799.41;;;11.51;100.00
58927;BME280;44712;52.530;9.760;2023-09-30T04:30:15;101803.97;;;11.49;100.00
58927;BME280;44712;52.530;9.760;2023-09-30T04:32:42;101812.97;;;11.53;100.00
58927;BME280;44712;52.530;9.760;2023-09-30T04:35:09;101800.34;;;11.55;100.00
58927;BME280;44712;52.530;9.760;2023-09-30T04:37:37;101812.97;;;11.53;100.00
58927;BME280;44712;52.530;9.760;2023-09-30T04:40:05;101812.97;;;11.53;100.00
58927;BME280;44712;52.530;9.760;2023-09-30T04:42:34;101825.63;;;11.54;100.00
58927;BME280;44712;52.530;9.760;2023-09-30T04:45:03;101825.63;;;11.57;100.00
58927;BME280;44712;52.530;9.760;2023-09-30T04:47:34;101818.41;;;11.56;100.00
58927;BME280;44712;52.530;9.760;2023-09-30T04:50:01;101812.97;;;11.53;100.00
58927;BME280;44712;52.530;9.760;2023-09-30T04:52:34;101818.41;;;11.56;100.00
58927;BME280;44712;52.530;9.760;2023-09-30T04:55:01;101826.53;;;11.59;100.00
58927;BME280;44712;52.530;9.760;2023-09-30T04:57:28;101824.72;;;11.58;100.00
58927;BME280;44712;52.530;9.760;2023-09-30T04:59:55;101824.72;;;11.56;100.00
58927;BME280;44712;52.530;9.760;2023-09-30T05:02:23;101812.97;;;11.62;100.00
58927;BME280;44712;52.530;9.760;2023-09-30T05:04:51;101815.69;;;11.62;100.00
58927;BME280;44712;52.530;9.760;2023-09-30T05:07:20;101811.19;;;11.61;100.00
58927;BME280;44712;52.530;9.760;2023-09-30T05:09:48;101809.38;;;11.60;100.00
58927;BME280;44712;52.530;9.760;2023-09-30T05:12:15;101821.13;;;11.59;100.00
58927;BME280;44712;52.530;9.760;2023-09-30T05:14:43;101813.88;;;11.56;100.00
58927;BME280;44712;52.530;9.760;2023-09-30T05:17:11;101816.63;;;11.61;100.00
58927;BME280;44712;52.530;9.760;2023-09-30T05:19:38;101816.59;;;11.60;100.00
58927;BME280;44712;52.530;9.760;2023-09-30T05:22:06;101824.72;;;11.58;100.00
58927;BME280;44712;52.530;9.760;2023-09-30T05:24:34;101829.25;;;11.59;100.00
58927;BME280;44712;52.530;9.760;2023-09-30T05:27:02;101818.41;;;11.62;100.00
58927;BME280;44712;52.530;9.760;2023-09-30T05:29:29;101822.94;;;11.60;100.00
58927;BME280;44712;52.530;9.760;2023-09-30T05:31:59;101827.47;;;11.61;100.00
58927;BME280;44712;52.530;9.760;2023-09-30T05:34:26;101832.88;;;11.58;100.00
58927;BME280;44712;52.530;9.760;2023-09-30T05:36:54;101838.28;;;11.55;100.00
58927;BME280;44712;52.530;9.760;2023-09-30T05:39:21;101838.28;;;11.55;100.00
58927;BME280;44712;52.530;9.760;2023-09-30T05:41:49;101845.50;;;11.53;100.00
58927;BME280;44712;52.530;9.760;2023-09-30T05:44:17;101832.88;;;11.52;100.00
58927;BME280;44712;52.530;9.760;2023-09-30T05:46:44;101835.59;;;11.52;100.00
58927;BME280;44712;52.530;9.760;2023-09-30T05:49:12;101843.72;;;11.52;100.00
58927;BME280;44712;52.530;9.760;2023-09-30T05:51:41;101847.31;;;11.54;100.00
58927;BME280;44712;52.530;9.760;2023-09-30T05:54:08;101854.56;;;11.58;100.00
58927;BME280;44712;52.530;9.760;2023-09-30T05:56:38;101847.34;;;11.60;100.00
58927;BME280;44712;52.530;9.760;2023-09-30T05:59:05;101849.16;;;11.61;100.00
58927;BME280;44712;52.530;9.760;2023-09-30T06:01:34;101858.19;;;11.63;100.00
58927;BME280;44712;52.530;9.760;2023-09-30T06:04:02;101862.69;;;11.67;100.00
58927;BME280;44712;52.530;9.760;2023-09-30T06:06:30;101868.13;;;11.67;100.00
58927;BME280;44712;52.530;9.760;2023-09-30T06:08:58;101869.00;;;11.66;100.00
58927;BME280;44712;52.530;9.760;2023-09-30T06:11:26;101869.03;;;11.68;100.00
58927;BME280;44712;52.530;9.760;2023-09-30T06:13:57;101883.50;;;11.68;100.00
58927;BME280;44712;52.530;9.760;2023-09-30T06:16:28;101881.69;;;11.73;100.00
58927;BME280;44712;52.530;9.760;2023-09-30T06:18:58;101885.28;;;11.76;100.00
58927;BME280;44712;52.530;9.760;2023-09-30T06:21:26;101887.13;;;11.77;100.00
58927;BME280;44712;52.530;9.760;2023-09-30T06:23:57;101890.72;;;11.76;100.00
58927;BME280;44712;52.530;9.760;2023-09-30T06:26:24;101895.25;;;11.73;100.00
58927;BME280;44712;52.530;9.760;2023-09-30T06:28:58;101895.25;;;11.75;100.00
58927;BME280;44712;52.530;9.760;2023-09-30T06:31:25;101894.38;;;11.75;100.00
58927;BME280;44712;52.530;9.760;2023-09-30T06:33:54;101894.38;;;11.75;100.00
58927;BME280;44712;52.530;9.760;2023-09-30T06:36:25;101898.88;;;11.79;100.00
58927;BME280;44712;52.530;9.760;2023-09-30T06:38:52;101905.22;;;11.76;100.00
58927;BME280;44712;52.530;9.760;2023-09-30T06:41:18;101898.88;;;11.83;100.00
58927;BME280;44712;52.530;9.760;2023-09-30T06:43:46;101897.97;;;11.89;100.00
58927;BME280;44712;52.530;9.760;2023-09-30T06:46:13;101902.47;;;11.92;100.00
58927;BME280;44712;52.530;9.760;2023-09-30T06:48:40;101903.44;;;11.95;100.00
58927;BME280;44712;52.530;9.760;2023-09-30T06:51:13;101907.06;;;11.97;100.00
58927;BME280;44712;52.530;9.760;2023-09-30T06:53:43;101902.53;;;11.99;100.00
58927;BME280;44712;52.530;9.760;2023-09-30T06:56:10;101903.44;;;12.01;100.00
58927;BME280;44712;52.530;9.760;2023-09-30T06:58:39;101901.63;;;12.10;100.00
58927;BME280;44712;52.530;9.760;2023-09-30T07:01:07;101913.34;;;12.12;100.00
58927;BME280;44712;52.530;9.760;2023-09-30T07:03:33;101905.22;;;12.18;100.00
58927;BME280;44712;52.530;9.760;2023-09-30T07:06:03;101911.56;;;12.20;100.00
58927;BME280;44712;52.530;9.760;2023-09-30T07:08:30;101915.19;;;12.28;100.00
58927;BME280;44712;52.530;9.760;2023-09-30T07:10:56;101921.47;;;12.39;100.00
58927;BME280;44712;52.530;9.760;2023-09-30T07:13:23;101923.28;;;12.47;100.00
58927;BME280;44712;52.530;9.760;2023-09-30T07:15:51;101926.00;;;12.50;100.00
58927;BME280;44712;52.530;9.760;2023-09-30T07:18:19;101920.53;;;12.59;100.00
58927;BME280;44712;52.530;9.760;2023-09-30T07:20:46;101924.13;;;12.67;100.00
58927;BME280;44712;52.530;9.760;2023-09-30T07:23:15;101929.56;;;12.75;100.00
58927;BME280;44712;52.530;9.760;2023-09-30T07:25:47;101941.31;;;12.80;100.00
58927;BME280;44712;52.530;9.760;2023-09-30T07:28:13;101935.84;;;12.88;100.00
58927;BME280;44712;52.530;9.760;2023-09-30T07:30:40;101935.84;;;12.91;100.00
58927;BME280;44712;52.530;9.760;2023-09-30T07:33:07;101944.84;;;13.02;100.00
58927;BME280;44712;52.530;9.760;2023-09-30T07:35:35;101951.16;;;13.14;100.00
58927;BME280;44712;52.530;9.760;2023-09-30T07:40:45;101954.69;;;13.27;100.00
58927;BME280;44712;52.530;9.760;2023-09-30T07:43:13;101957.38;;;13.34;100.00
58927;BME280;44712;52.530;9.760;2023-09-30T07:45:40;101960.06;;;13.47;100.00
58927;BME280;44712;52.530;9.760;2023-09-30T07:48:11;101959.13;;;13.57;100.00
58927;BME280;44712;52.530;9.760;2023-09-30T07:50:38;101954.50;;;13.71;100.00
58927;BME280;44712;52.530;9.760;2023-09-30T07:53:05;101964.34;;;13.88;100.00
58927;BME280;44712;52.530;9.760;2023-09-30T07:55:32;101966.13;;;13.95;100.00
58927;BME280;44712;52.530;9.760;2023-09-30T08:01:27;101963.22;;;14.18;100.00
58927;BME280;44712;52.530;9.760;2023-09-30T08:03:56;101957.69;;;14.28;100.00
58927;BME280;44712;52.530;9.760;2023-09-30T08:06:23;101969.34;;;14.44;100.00
58927;BME280;44712;52.530;9.760;2023-09-30T08:08:51;101969.22;;;14.56;100.00
58927;BME280;44712;52.530;9.760;2023-09-30T08:11:19;101964.56;;;14.70;100.00
58927;BME280;44712;52.530;9.760;2023-09-30T08:13:47;101974.47;;;14.81;100.00
58927;BME280;44712;52.530;9.760;2023-09-30T08:16:15;101978.03;;;14.86;100.00
58927;BME280;44712;52.530;9.760;2023-09-30T08:21:57;101989.56;;;15.10;100.00
58927;BME280;44712;52.530;9.760;2023-09-30T08:24:24;101991.31;;;15.17;100.00
58927;BME280;44712;52.530;9.760;2023-09-30T08:26:52;101986.66;;;15.25;100.00
58927;BME280;44712;52.530;9.760;2023-09-30T08:29:20;101993.94;;;15.26;100.00
58927;BME280;44712;52.530;9.760;2023-09-30T08:37:59;101990.00;;;15.49;100.00
58927;BME280;44712;52.530;9.760;2023-09-30T08:40:29;101981.81;;;15.47;100.00
58927;BME280;44712;52.530;9.760;2023-09-30T08:42:56;101978.97;;;15.55;100.00
58927;BME280;44712;52.530;9.760;2023-09-30T08:45:24;101982.50;;;15.63;100.00
58927;BME280;44712;52.530;9.760;2023-09-30T08:47:55;101986.91;;;15.73;100.00
58927;BME280;44712;52.530;9.760;2023-09-30T08:50:22;101993.38;;;15.66;100.00
58927;BME280;44712;52.530;9.760;2023-09-30T08:52:49;101989.03;;;15.53;100.00
58927;BME280;44712;52.530;9.760;2023-09-30T08:55:16;101997.13;;;15.61;100.00
58927;BME280;44712;52.530;9.760;2023-09-30T08:57:44;102007.94;;;15.65;100.00
58927;BME280;44712;52.530;9.760;2023-09-30T09:00:12;102002.38;;;15.74;100.00
58927;BME280;44712;52.530;9.760;2023-09-30T09:02:50;102010.59;;;15.70;100.00
58927;BME280;44712;52.530;9.760;2023-09-30T09:05:17;102003.13;;;15.86;100.00
58927;BME280;44712;52.530;9.760;2023-09-30T09:07:44;102012.13;;;15.93;100.00
58927;BME280;44712;52.530;9.760;2023-09-30T09:10:11;102004.78;;;15.98;100.00
58927;BME280;44712;52.530;9.760;2023-09-30T09:16:08;102010.88;;;16.17;100.00
58927;BME280;44712;52.530;9.760;2023-09-30T09:28:03;102017.72;;;16.43;97.27
58927;BME280;44712;52.530;9.760;2023-09-30T09:30:30;102004.72;;;16.57;99.52
58927;BME280;44712;52.530;9.760;2023-09-30T09:33:02;102015.44;;;16.69;98.90
58927;BME280;44712;52.530;9.760;2023-09-30T09:35:31;102006.00;;;16.86;95.92
58927;BME280;44712;52.530;9.760;2023-09-30T09:38:01;102005.94;;;16.92;94.33
58927;BME280;44712;52.530;9.760;2023-09-30T09:40:32;101999.38;;;16.99;95.26
58927;BME280;44712;52.530;9.760;2023-09-30T09:43:00;101999.25;;;17.07;91.53
58927;BME280;44712;52.530;9.760;2023-09-30T09:45:35;102000.03;;;17.14;93.44
58927;BME280;44712;52.530;9.760;2023-09-30T09:48:04;101999.84;;;17.23;93.17
58927;BME280;44712;52.530;9.760;2023-09-30T09:50:34;101997.84;;;17.31;90.65
58927;BME280;44712;52.530;9.760;2023-09-30T09:53:04;101997.63;;;17.40;91.68
58927;BME280;44712;52.530;9.760;2023-09-30T09:55:31;101996.41;;;17.55;92.38
58927;BME280;44712;52.530;9.760;2023-09-30T09:58:02;101996.59;;;17.48;89.26
58927;BME280;44712;52.530;9.760;2023-09-30T10:00:29;101984.47;;;17.58;88.33
58927;BME280;44712;52.530;9.760;2023-09-30T10:02:59;102000.69;;;17.67;86.20
58927;BME280;44712;52.530;9.760;2023-09-30T10:05:26;101998.41;;;17.88;86.76
58927;BME280;44712;52.530;9.760;2023-09-30T10:08:01;102008.63;;;17.80;84.76
58927;BME280;44712;52.530;9.760;2023-09-30T10:10:31;102004.59;;;17.98;83.69
58927;BME280;44712;52.530;9.760;2023-09-30T10:13:02;102007.38;;;17.96;82.97
58927;BME280;44712;52.530;9.760;2023-09-30T10:15:35;102003.59;;;18.02;81.98
58927;BME280;44712;52.530;9.760;2023-09-30T10:18:04;101995.16;;;18.11;81.53
58927;BME280;44712;52.530;9.760;2023-09-30T10:20:34;101998.00;;;18.06;81.97
58927;BME280;44712;52.530;9.760;2023-09-30T10:25:46;102008.25;;;18.34;82.81
58927;BME280;44712;52.530;9.760;2023-09-30T10:28:37;102005.13;;;18.14;80.08
58927;BME280;44712;52.530;9.760;2023-09-30T10:33:36;102008.13;;;18.40;82.81
58927;BME280;44712;52.530;9.760;2023-09-30T10:36:04;102001.63;;;18.45;81.88
58927;BME280;44712;52.530;9.760;2023-09-30T10:38:37;102001.16;;;18.27;79.66
58927;BME280;44712;52.530;9.760;2023-09-30T10:41:06;102015.88;;;18.59;80.90
58927;BME280;44712;52.530;9.760;2023-09-30T10:43:41;102017.81;;;18.54;79.48
58927;BME280;44712;52.530;9.760;2023-09-30T10:48:56;102030.66;;;18.53;78.63
58927;BME280;44712;52.530;9.760;2023-09-30T10:51:24;102011.69;;;18.44;77.98
58927;BME280;44712;52.530;9.760;2023-09-30T10:53:54;102005.44;;;18.01;78.10
58927;BME280;44712;52.530;9.760;2023-09-30T10:56:32;102007.97;;;18.11;79.07
58927;BME280;44712;52.530;9.760;2023-09-30T10:59:03;102011.31;;;17.83;80.14
58927;BME280;44712;52.530;9.760;2023-09-30T11:01:34;102005.56;;;17.95;81.58
58927;BME280;44712;52.530;9.760;2023-09-30T11:04:04;102007.44;;;17.93;80.95
58927;BME280;44712;52.530;9.760;2023-09-30T11:06:32;102007.66;;;17.84;81.71
58927;BME280;44712;52.530;9.760;2023-09-30T11:09:01;102005.34;;;18.04;82.91
58927;BME280;44712;52.530;9.760;2023-09-30T11:14:03;102016.13;;;18.12;81.17
58927;BME280;44712;52.530;9.760;2023-09-30T11:16:41;102012.88;;;17.96;79.91
58927;BME280;44712;52.530;9.760;2023-09-30T11:19:12;102007.47;;;17.90;79.62
58927;BME280;44712;52.530;9.760;2023-09-30T11:21:41;102015.88;;;17.84;80.02
58927;BME280;44712;52.530;9.760;2023-09-30T11:24:13;102019.34;;;17.90;81.90
58927;BME280;44712;52.530;9.760;2023-09-30T11:26:44;102001.75;;;18.02;80.71
58927;BME280;44712;52.530;9.760;2023-09-30T11:29:12;102005.22;;;18.11;80.04
58927;BME280;44712;52.530;9.760;2023-09-30T11:31:40;101997.94;;;18.10;78.99
58927;BME280;44712;52.530;9.760;2023-09-30T11:34:10;101994.16;;;18.14;80.14
58927;BME280;44712;52.530;9.760;2023-09-30T11:36:51;101991.53;;;18.09;76.81
58927;BME280;44712;52.530;9.760;2023-09-30T11:39:22;101994.84;;;18.23;77.02
58927;BME280;44712;52.530;9.760;2023-09-30T11:41:56;101994.66;;;18.31;75.58
58927;BME280;44712;52.530;9.760;2023-09-30T11:44:29;101984.22;;;18.46;75.50
58927;BME280;44712;52.530;9.760;2023-09-30T11:47:00;101993.25;;;18.51;74.22
58927;BME280;44712;52.530;9.760;2023-09-30T11:49:31;101983.81;;;18.61;73.48
58927;BME280;44712;52.530;9.760;2023-09-30T11:52:03;101992.91;;;18.63;70.71
58927;BME280;44712;52.530;9.760;2023-09-30T11:54:36;101992.81;;;18.66;71.00
58927;BME280;44712;52.530;9.760;2023-09-30T11:57:16;102002.06;;;18.62;68.43
58927;BME280;44712;52.530;9.760;2023-09-30T11:59:45;101992.66;;;18.72;69.34
58927;BME280;44712;52.530;9.760;2023-09-30T12:02:13;101994.47;;;18.73;69.14
58927;BME280;44712;52.530;9.760;2023-09-30T12:04:52;101996.00;;;18.84;69.58
58927;BME280;44712;52.530;9.760;2023-09-30T12:07:21;101997.13;;;18.77;67.48
58927;BME280;44712;52.530;9.760;2023-09-30T12:09:48;101997.38;;;18.67;68.19
58927;BME280;44712;52.530;9.760;2023-09-30T12:12:16;101996.25;;;18.74;67.95
58927;BME280;44712;52.530;9.760;2023-09-30T12:14:43;101989.03;;;18.70;64.54
58927;BME280;44712;52.530;9.760;2023-09-30T12:17:10;101988.59;;;18.87;68.81
58927;BME280;44712;52.530;9.760;2023-09-30T12:19:40;101986.50;;;18.97;67.07
58927;BME280;44712;52.530;9.760;2023-09-30T12:22:10;101984.22;;;19.15;67.27
58927;BME280;44712;52.530;9.760;2023-09-30T12:24:40;101983.75;;;18.99;64.45
58927;BME280;44712;52.530;9.760;2023-09-30T12:27:08;101972.78;;;18.99;63.69
58927;BME280;44712;52.530;9.760;2023-09-30T12:29:36;101973.75;;;18.96;63.30
58927;BME280;44712;52.530;9.760;2023-09-30T12:32:06;101957.09;;;19.02;64.53
58927;BME280;44712;52.530;9.760;2023-09-30T12:34:34;101951.56;;;19.05;64.59
58927;BME280;44712;52.530;9.760;2023-09-30T12:37:03;101959.69;;;19.09;63.88
58927;BME280;44712;52.530;9.760;2023-09-30T12:39:30;101950.78;;;19.00;63.07
58927;BME280;44712;52.530;9.760;2023-09-30T12:42:00;101951.75;;;18.98;65.12
58927;BME280;44712;52.530;9.760;2023-09-30T12:44:26;101950.19;;;18.89;64.25
58927;BME280;44712;52.530;9.760;2023-09-30T12:46:55;101938.16;;;18.93;64.42
58927;BME280;44712;52.530;9.760;2023-09-30T12:49:23;101937.06;;;19.00;66.68
58927;BME280;44712;52.530;9.760;2023-09-30T12:51:53;101941.56;;;19.03;64.83
58927;BME280;44712;52.530;9.760;2023-09-30T12:54:21;101950.56;;;19.08;64.02
58927;BME280;44712;52.530;9.760;2023-09-30T12:56:49;101942.44;;;19.03;62.34
58927;BME280;44712;52.530;9.760;2023-09-30T12:59:17;101957.06;;;19.04;63.52
58927;BME280;44712;52.530;9.760;2023-09-30T13:01:44;101957.09;;;19.02;64.34
58927;BME280;44712;52.530;9.760;2023-09-30T13:04:12;101955.84;;;19.14;64.83
58927;BME280;44712;52.530;9.760;2023-09-30T13:06:39;101949.84;;;19.01;63.34
58927;BME280;44712;52.530;9.760;2023-09-30T13:09:07;101946.41;;;18.93;65.55
58927;BME280;44712;52.530;9.760;2023-09-30T13:11:38;101947.59;;;18.83;65.67
58927;BME280;44712;52.530;9.760;2023-09-30T13:14:08;101953.38;;;18.72;65.67
58927;BME280;44712;52.530;9.760;2023-09-30T13:16:37;101950.13;;;18.57;66.12
58927;BME280;44712;52.530;9.760;2023-09-30T13:19:05;101953.78;;;18.56;67.48
58927;BME280;44712;52.530;9.760;2023-09-30T13:21:34;101950.59;;;18.73;69.20
58927;BME280;44712;52.530;9.760;2023-09-30T13:24:06;101947.50;;;18.86;68.65
58927;BME280;44712;52.530;9.760;2023-09-30T13:26:35;101942.84;;;18.88;68.17
58927;BME280;44712;52.530;9.760;2023-09-30T13:29:02;101935.59;;;18.87;69.98
58927;BME280;44712;52.530;9.760;2023-09-30T13:31:31;101928.84;;;19.00;71.90
58927;BME280;44712;52.530;9.760;2023-09-30T13:34:00;101932.81;;;19.20;67.94
58927;BME280;44712;52.530;9.760;2023-09-30T13:36:28;101936.53;;;19.19;68.41
58927;BME280;44712;52.530;9.760;2023-09-30T13:38:56;101933.84;;;19.16;69.45
58927;BME280;44712;52.530;9.760;2023-09-30T13:41:24;101929.22;;;19.18;69.26